createdAt,value
2018-05-02T00:00:38.338Z,96.83
2018-05-02T00:01:38.356Z,96.26
2018-05-02T00:02:53.034Z,96.22
2018-05-02T00:03:38.394Z,96.5
2018-05-02T00:04:38.413Z,96.26
2018-05-02T00:05:38.437Z,96.26
2018-05-02T00:06:38.451Z,96.93
2018-05-02T00:07:38.474Z,97.02
2018-05-02T00:08:38.488Z,97.02
2018-05-02T00:09:38.506Z,96.93
2018-05-02T00:10:38.531Z,96.83
2018-05-02T00:11:38.546Z,96.93
2018-05-02T00:12:38.567Z,97.12
2018-05-02T00:13:38.587Z,97.22
2018-05-02T00:14:38.600Z,97.5
2018-05-02T00:15:38.618Z,97.78
2018-05-02T00:16:38.378Z,98.07
2018-05-02T00:17:38.660Z,98.16
2018-05-02T00:18:53.335Z,97.78
2018-05-02T00:19:38.694Z,98.54
2018-05-02T00:20:38.710Z,98.35
2018-05-02T00:21:38.732Z,98.35
2018-05-02T00:22:38.753Z,98.54
2018-05-02T00:23:38.509Z,98.54
2018-05-02T00:24:38.790Z,98.83
2018-05-02T00:25:38.547Z,99.11
2018-05-02T00:26:38.836Z,98.73
2018-05-02T00:27:38.585Z,99.58
2018-05-02T00:28:39.065Z,99.49
2018-05-02T00:29:38.879Z,99.87
2018-05-02T00:30:38.902Z,99.3
2018-05-02T00:31:38.917Z,99.49
2018-05-02T00:32:38.680Z,98.92
2018-05-02T00:33:38.954Z,99.02
2018-05-02T00:34:53.632Z,99.3
2018-05-02T00:35:38.992Z,99.3
2018-05-02T00:36:39.009Z,99.58
2018-05-02T00:37:39.033Z,99.49
2018-05-02T00:38:39.046Z,99.02
2018-05-02T00:39:39.068Z,98.64
2018-05-02T00:40:39.085Z,99.02
2018-05-02T00:42:39.118Z,99.58
2018-05-02T00:43:38.883Z,99.99
2018-05-02T00:44:39.157Z,99.49
2018-05-02T00:45:38.921Z,99.58
2018-05-02T00:46:39.195Z,99.58
2018-05-02T00:47:39.218Z,99.87
2018-05-02T00:48:39.233Z,99.68
2018-05-02T00:49:39.256Z,99.77
2018-05-02T00:50:53.928Z,99.58
2018-05-02T00:51:39.289Z,99.49
2018-05-02T00:52:39.307Z,99.99
2018-05-02T00:53:39.067Z,99.58
2018-05-02T00:54:39.086Z,99.77
2018-05-02T00:55:39.365Z,99.02
2018-05-02T00:56:39.384Z,99.68
2018-05-02T00:57:39.508Z,99.3
2018-05-02T00:58:39.418Z,99.99
2018-05-02T00:59:39.443Z,99.99
2018-05-02T01:00:39.464Z,99.99
2018-05-02T01:01:39.472Z,99.99
2018-05-02T01:02:39.489Z,99.99
2018-05-02T01:03:39.251Z,99.99
2018-05-02T01:04:39.555Z,99.99
2018-05-02T01:05:54.208Z,99.99
2018-05-02T01:06:39.575Z,99.99
2018-05-02T01:07:39.588Z,99.99
2018-05-02T01:08:39.604Z,99.99
2018-05-02T01:09:39.657Z,99.99
2018-05-02T01:10:39.639Z,99.99
2018-05-02T01:12:39.675Z,99.99
2018-05-02T01:13:39.711Z,99.99
2018-05-02T01:14:39.715Z,99.99
2018-05-02T01:15:39.734Z,99.99
2018-05-02T01:16:39.797Z,99.99
2018-05-02T01:17:39.768Z,99.99
2018-05-02T01:18:39.785Z,99.99
2018-05-02T01:19:39.806Z,99.99
2018-05-02T01:20:39.820Z,99.99
2018-05-02T01:21:39.842Z,99.99
2018-05-02T01:22:39.599Z,99.99
2018-05-02T01:23:39.878Z,99.99
2018-05-02T01:24:39.895Z,99.99
2018-05-02T01:25:40.012Z,99.99
2018-05-02T01:26:39.930Z,99.99
2018-05-02T01:27:39.953Z,99.99
2018-05-02T01:29:39.726Z,99.99
2018-05-02T01:31:40.027Z,99.99
2018-05-02T01:32:39.781Z,99.99
2018-05-02T01:33:40.056Z,99.99
2018-05-02T01:34:40.075Z,99.99
2018-05-02T01:35:40.095Z,99.99
2018-05-02T01:36:40.115Z,99.99
2018-05-02T01:37:54.789Z,99.99
2018-05-02T01:38:39.888Z,99.99
2018-05-02T01:39:40.168Z,99.99
2018-05-02T01:40:40.184Z,99.99
2018-05-02T01:41:40.204Z,99.99
2018-05-02T01:42:40.224Z,99.99
2018-05-02T01:43:40.239Z,99.99
2018-05-02T01:44:40.255Z,99.99
2018-05-02T01:45:40.283Z,99.99
2018-05-02T01:46:40.299Z,99.99
2018-05-02T01:47:40.312Z,99.99
2018-05-02T01:48:40.328Z,99.99
2018-05-02T01:49:40.093Z,99.99
2018-05-02T01:50:40.370Z,99.99
2018-05-02T01:51:40.384Z,99.99
2018-05-02T01:52:40.403Z,99.99
2018-05-02T01:53:55.082Z,99.99
2018-05-02T01:54:40.436Z,99.99
2018-05-02T01:55:40.453Z,99.99
2018-05-02T01:56:40.473Z,99.99
2018-05-02T01:57:40.494Z,99.99
2018-05-02T01:58:40.504Z,99.99
2018-05-02T01:59:40.523Z,99.99
2018-05-02T02:00:40.542Z,99.99
2018-05-02T02:01:40.562Z,99.99
2018-05-02T02:02:40.583Z,99.99
2018-05-02T02:03:40.594Z,99.99
2018-05-02T02:04:40.614Z,99.99
2018-05-02T02:05:40.631Z,99.99
2018-05-02T02:06:40.652Z,99.99
2018-05-02T02:07:40.665Z,99.99
2018-05-02T02:08:40.426Z,99.99
2018-05-02T02:09:55.361Z,99.99
2018-05-02T02:10:40.721Z,99.99
2018-05-02T02:11:40.741Z,99.99
2018-05-02T02:12:40.765Z,99.99
2018-05-02T02:13:40.772Z,99.99
2018-05-02T02:14:40.793Z,99.99
2018-05-02T02:15:40.811Z,99.99
2018-05-02T02:16:40.826Z,99.99
2018-05-02T02:17:40.585Z,99.99
2018-05-02T02:20:40.901Z,99.99
2018-05-02T02:21:40.918Z,99.99
2018-05-02T02:22:40.937Z,99.99
2018-05-02T02:23:40.953Z,99.99
2018-05-02T02:24:40.973Z,99.99
2018-05-02T02:25:55.646Z,99.99
2018-05-02T02:26:41.005Z,99.99
2018-05-02T02:27:40.764Z,99.99
2018-05-02T02:28:41.042Z,99.99
2018-05-02T02:29:41.057Z,99.99
2018-05-02T02:30:41.075Z,99.99
2018-05-02T02:31:41.092Z,99.99
2018-05-02T02:32:41.117Z,99.99
2018-05-02T02:33:41.229Z,99.99
2018-05-02T02:34:41.146Z,99.99
2018-05-02T02:36:41.180Z,99.99
2018-05-02T02:37:41.201Z,99.99
2018-05-02T02:38:41.221Z,99.99
2018-05-02T02:39:41.234Z,99.99
2018-05-02T02:40:55.928Z,99.99
2018-05-02T02:41:41.270Z,99.99
2018-05-02T02:42:41.287Z,99.99
2018-05-02T02:43:41.318Z,99.99
2018-05-02T02:44:41.066Z,99.99
2018-05-02T02:45:41.352Z,99.99
2018-05-02T02:46:41.358Z,99.99
2018-05-02T02:48:41.395Z,99.99
2018-05-02T02:49:41.157Z,99.99
2018-05-02T02:50:41.429Z,99.99
2018-05-02T02:51:41.456Z,99.99
2018-05-02T02:52:41.204Z,99.99
2018-05-02T02:53:41.482Z,99.99
2018-05-02T02:54:41.500Z,99.99
2018-05-02T02:55:41.517Z,99.99
2018-05-02T02:56:41.534Z,99.99
2018-05-02T02:57:41.553Z,99.99
2018-05-02T02:58:41.314Z,99.99
2018-05-02T02:59:41.590Z,99.99
2018-05-02T03:00:41.601Z,99.99
2018-05-02T03:01:41.371Z,99.99
2018-05-02T03:02:41.639Z,99.99
2018-05-02T03:03:41.755Z,99.99
2018-05-02T03:04:41.681Z,99.99
2018-05-02T03:05:41.694Z,99.99
2018-05-02T03:06:41.709Z,99.99
2018-05-02T03:07:41.734Z,99.99
2018-05-02T03:08:41.818Z,99.99
2018-05-02T03:09:41.772Z,99.99
2018-05-02T03:10:41.791Z,99.99
2018-05-02T03:11:41.806Z,99.99
2018-05-02T03:12:56.473Z,99.99
2018-05-02T03:13:41.837Z,99.99
2018-05-02T03:14:41.852Z,99.99
2018-05-02T03:15:41.877Z,99.99
2018-05-02T03:16:41.625Z,99.99
2018-05-02T03:17:41.900Z,99.99
2018-05-02T03:18:41.923Z,99.99
2018-05-02T03:20:41.953Z,99.99
2018-05-02T03:22:41.990Z,99.99
2018-05-02T03:23:41.743Z,99.99
2018-05-02T03:24:42.022Z,99.99
2018-05-02T03:25:42.038Z,99.99
2018-05-02T03:26:42.059Z,99.99
2018-05-02T03:27:42.088Z,99.99
2018-05-02T03:28:56.749Z,99.99
2018-05-02T03:29:42.106Z,99.99
2018-05-02T03:30:42.127Z,99.99
2018-05-02T03:31:42.153Z,99.99
2018-05-02T03:32:42.193Z,99.99
2018-05-02T03:33:42.174Z,99.99
2018-05-02T03:34:42.197Z,99.99
2018-05-02T03:35:42.211Z,99.99
2018-05-02T03:36:42.232Z,99.99
2018-05-02T03:37:42.252Z,99.99
2018-05-02T03:38:42.004Z,99.99
2018-05-02T03:39:42.282Z,99.99
2018-05-02T03:40:42.039Z,99.99
2018-05-02T03:41:42.319Z,99.99
2018-05-02T03:42:42.331Z,99.99
2018-05-02T03:43:42.350Z,99.99
2018-05-02T03:44:57.024Z,99.99
2018-05-02T03:45:42.389Z,99.99
2018-05-02T03:47:42.432Z,99.99
2018-05-02T03:48:42.450Z,99.99
2018-05-02T03:49:42.465Z,99.99
2018-05-02T03:50:42.484Z,99.99
2018-05-02T03:51:42.515Z,99.99
2018-05-02T03:52:42.528Z,99.99
2018-05-02T03:53:42.571Z,99.99
2018-05-02T03:54:42.554Z,99.99
2018-05-02T03:55:42.308Z,99.99
2018-05-02T03:56:42.589Z,99.99
2018-05-02T03:57:42.605Z,99.99
2018-05-02T03:58:42.360Z,99.99
2018-05-02T03:59:42.785Z,99.99
2018-05-02T04:00:57.305Z,99.99
2018-05-02T04:01:42.414Z,99.99
2018-05-02T04:02:42.693Z,99.99
2018-05-02T04:03:42.710Z,99.99
2018-05-02T04:04:42.727Z,99.99
2018-05-02T04:05:42.747Z,99.99
2018-05-02T04:06:42.761Z,99.99
2018-05-02T04:07:42.788Z,99.99
2018-05-02T04:08:42.891Z,99.99
2018-05-02T04:09:42.815Z,99.99
2018-05-02T04:11:42.853Z,99.99
2018-05-02T04:12:42.876Z,99.99
2018-05-02T04:14:42.906Z,99.99
2018-05-02T04:15:57.570Z,99.99
2018-05-02T04:16:42.946Z,99.99
2018-05-02T04:17:42.695Z,99.99
2018-05-02T04:18:43.096Z,99.99
2018-05-02T04:20:42.750Z,99.99
2018-05-02T04:21:43.029Z,99.99
2018-05-02T04:22:42.792Z,99.99
2018-05-02T04:23:43.065Z,99.99
2018-05-02T04:24:42.820Z,99.99
2018-05-02T04:25:43.100Z,99.99
2018-05-02T04:26:43.119Z,99.99
2018-05-02T04:27:42.876Z,99.99
2018-05-02T04:28:43.155Z,99.99
2018-05-02T04:29:43.174Z,99.99
2018-05-02T04:30:43.192Z,99.99
2018-05-02T04:31:43.212Z,99.99
2018-05-02T04:32:42.964Z,99.99
2018-05-02T04:33:43.244Z,99.99
2018-05-02T04:34:43.266Z,99.99
2018-05-02T04:35:43.282Z,99.99
2018-05-02T04:36:43.304Z,99.99
2018-05-02T04:37:43.318Z,99.99
2018-05-02T04:38:43.342Z,99.99
2018-05-02T04:39:43.353Z,99.99
2018-05-02T04:40:43.374Z,99.99
2018-05-02T04:41:43.131Z,99.99
2018-05-02T04:42:43.421Z,99.99
2018-05-02T04:43:43.415Z,99.99
2018-05-02T04:44:43.435Z,99.99
2018-05-02T04:45:43.552Z,99.99
2018-05-02T04:46:43.473Z,99.99
2018-05-02T04:47:58.153Z,99.99
2018-05-02T04:48:43.509Z,99.99
2018-05-02T04:49:43.526Z,99.99
2018-05-02T04:50:43.547Z,99.99
2018-05-02T04:51:43.570Z,99.99
2018-05-02T04:53:43.343Z,99.99
2018-05-02T04:54:43.361Z,99.99
2018-05-02T04:55:43.644Z,99.99
2018-05-02T04:56:43.662Z,99.84
2018-05-02T04:57:43.682Z,98.5
2018-05-02T04:58:43.701Z,96.7
2018-05-02T04:59:43.722Z,94.7
2018-05-02T05:00:43.739Z,92.84
2018-05-02T05:01:43.761Z,90.84
2018-05-02T05:02:43.786Z,89.7
2018-05-02T05:03:58.462Z,88.31
2018-05-02T05:04:43.832Z,87.5
2018-05-02T05:05:43.845Z,86.55
2018-05-02T05:06:43.965Z,84.78
2018-05-02T05:07:43.635Z,82.82
2018-05-02T05:08:43.910Z,81.43
2018-05-02T05:09:43.932Z,78.13
2018-05-02T05:12:44.000Z,70.91
2018-05-02T05:14:44.047Z,65.23
2018-05-02T05:15:44.072Z,63.35
2018-05-02T05:16:44.095Z,61.66
2018-05-02T05:17:44.123Z,60.15
2018-05-02T05:18:44.144Z,59.48
2018-05-02T05:19:58.831Z,57.85
2018-05-02T05:20:44.196Z,58.26
2018-05-02T05:21:44.221Z,57.4
2018-05-02T05:22:43.988Z,55.69
2018-05-02T05:23:44.270Z,54.96
2018-05-02T05:24:44.299Z,54.74
2018-05-02T05:25:44.326Z,54.93
2018-05-02T05:26:44.354Z,54.38
2018-05-02T05:27:44.382Z,53.35
2018-05-02T05:28:44.402Z,52.65
2018-05-02T05:29:44.432Z,52.68
2018-05-02T05:30:44.456Z,52.75
2018-05-02T05:31:44.484Z,53.01
2018-05-02T05:32:44.510Z,54.35
2018-05-02T05:33:44.542Z,55.1
2018-05-02T05:34:44.567Z,55.67
2018-05-02T05:35:59.254Z,55.16
2018-05-02T05:36:44.362Z,56.19
2018-05-02T05:37:44.645Z,55.9
2018-05-02T05:38:44.673Z,58.27
2018-05-02T05:39:44.703Z,58.44
2018-05-02T05:40:44.726Z,59.11
2018-05-02T05:41:44.752Z,62.43
2018-05-02T05:42:44.792Z,60.61
2018-05-02T05:44:44.830Z,61.34
2018-05-02T05:45:44.954Z,62.4
2018-05-02T05:46:44.880Z,63.26
2018-05-02T05:47:44.903Z,62.46
2018-05-02T05:48:44.670Z,63.13
2018-05-02T05:49:45.159Z,64.95
2018-05-02T05:50:59.641Z,65.52
2018-05-02T05:51:45.007Z,64.66
2018-05-02T05:52:45.034Z,64.47
2018-05-02T05:53:45.117Z,65.08
2018-05-02T05:54:45.088Z,63.16
2018-05-02T05:55:45.102Z,61.76
2018-05-02T05:56:45.137Z,60.58
2018-05-02T05:57:45.151Z,60.61
2018-05-02T05:58:45.180Z,60.7
2018-05-02T06:00:45.285Z,61.28
2018-05-02T06:01:45.247Z,60.13
2018-05-02T06:02:45.015Z,61.08
2018-05-02T06:03:45.296Z,61.37
2018-05-02T06:04:45.321Z,60.58
2018-05-02T06:05:45.350Z,60.77
2018-05-02T06:06:45.521Z,59.75
2018-05-02T06:07:45.137Z,60.61
2018-05-02T06:08:45.417Z,60.99
2018-05-02T06:09:45.444Z,59.75
2018-05-02T06:10:45.465Z,59.36
2018-05-02T06:11:45.501Z,59.36
2018-05-02T06:12:45.590Z,59.17
2018-05-02T06:15:45.590Z,58.88
2018-05-02T06:16:45.615Z,57.26
2018-05-02T06:17:45.380Z,57.83
2018-05-02T06:18:45.713Z,58.79
2018-05-02T06:19:45.691Z,57.54
2018-05-02T06:20:45.713Z,58.12
2018-05-02T06:21:45.733Z,58.98
2018-05-02T06:23:00.420Z,58.31
2018-05-02T06:23:45.783Z,59.17
2018-05-02T06:24:45.812Z,58.79
2018-05-02T06:25:45.832Z,57.92
2018-05-02T06:26:45.854Z,58.88
2018-05-02T06:27:45.881Z,57.73
2018-05-02T06:31:46.130Z,54.89
2018-05-02T06:32:46.005Z,54.99
2018-05-02T06:33:46.027Z,55.18
2018-05-02T06:34:45.791Z,54.91
2018-05-02T06:35:46.077Z,54.05
2018-05-02T06:36:46.099Z,53.67
2018-05-02T06:37:46.400Z,52.45
2018-05-02T06:39:00.809Z,51.78
2018-05-02T06:39:46.176Z,51.97
2018-05-02T06:40:46.197Z,51.14
2018-05-02T06:41:46.222Z,51.23
2018-05-02T06:42:46.252Z,50.27
2018-05-02T06:43:46.272Z,49.79
2018-05-02T06:44:46.045Z,48.95
2018-05-02T06:45:46.064Z,48.66
2018-05-02T06:46:46.351Z,49.72
2018-05-02T06:47:46.377Z,48.38
2018-05-02T06:48:46.400Z,48.28
2018-05-02T06:50:46.557Z,48.66
2018-05-02T06:51:46.484Z,47.92
2018-05-02T06:52:46.507Z,46.65
2018-05-02T06:53:46.535Z,47.99
2018-05-02T06:55:01.214Z,47.32
2018-05-02T06:55:46.593Z,47.03
2018-05-02T06:56:46.605Z,47.77
2018-05-02T06:57:46.634Z,48.07
2018-05-02T06:58:46.657Z,47.58
2018-05-02T06:59:46.682Z,47.13
2018-05-02T07:00:46.539Z,47.51
2018-05-02T07:01:46.734Z,47.03
2018-05-02T07:02:46.551Z,46.55
2018-05-02T07:03:46.838Z,46.77
2018-05-02T07:06:46.863Z,46.58
2018-05-02T07:07:46.892Z,46.09
2018-05-02T07:08:46.917Z,46.28
2018-05-02T07:09:46.942Z,46.19
2018-05-02T07:11:01.630Z,45.88
2018-05-02T07:11:46.996Z,46.28
2018-05-02T07:12:46.765Z,46.55
2018-05-02T07:13:47.047Z,45.61
2018-05-02T07:14:47.082Z,44.48
2018-05-02T07:16:47.132Z,43.26
2018-05-02T07:17:46.896Z,43.91
2018-05-02T07:18:46.922Z,44.46
2018-05-02T07:19:47.215Z,44.29
2018-05-02T07:20:47.245Z,44.48
2018-05-02T07:21:47.263Z,43.37
2018-05-02T07:22:47.288Z,42.77
2018-05-02T07:23:47.316Z,43.16
2018-05-02T07:24:47.343Z,42.58
2018-05-02T07:26:02.034Z,42.97
2018-05-02T07:26:47.142Z,43.57
2018-05-02T07:27:47.169Z,42.22
2018-05-02T07:28:47.467Z,41.66
2018-05-02T07:29:47.506Z,42.24
2018-05-02T07:30:47.251Z,42.12
2018-05-02T07:31:47.543Z,42.32
2018-05-02T07:32:47.860Z,42.87
2018-05-02T07:33:47.338Z,42.3
2018-05-02T07:34:47.364Z,43.35
2018-05-02T07:35:47.650Z,41.91
2018-05-02T07:36:47.418Z,42.49
2018-05-02T07:37:47.450Z,43.54
2018-05-02T07:38:47.733Z,43.16
2018-05-02T07:39:47.759Z,42
2018-05-02T07:40:47.790Z,42.41
2018-05-02T07:41:47.555Z,41.95
2018-05-02T07:42:47.581Z,41.78
2018-05-02T07:43:47.869Z,41.01
2018-05-02T07:44:47.897Z,40.81
2018-05-02T07:45:47.927Z,41.66
2018-05-02T07:46:47.956Z,40.72
2018-05-02T07:47:47.988Z,40.63
2018-05-02T07:48:48.008Z,40.43
2018-05-02T07:49:48.036Z,39.83
2018-05-02T07:50:48.063Z,39.76
2018-05-02T07:51:48.090Z,40.14
2018-05-02T07:52:48.121Z,41.01
2018-05-02T07:53:48.150Z,41.39
2018-05-02T07:54:48.178Z,40.43
2018-05-02T07:55:48.209Z,40.89
2018-05-02T07:56:48.237Z,41.49
2018-05-02T07:58:02.967Z,39.76
2018-05-02T07:58:48.290Z,40.16
2018-05-02T07:59:48.320Z,40.14
2018-05-02T08:00:48.341Z,39.06
2018-05-02T08:01:48.368Z,39.37
2018-05-02T08:02:48.397Z,39.11
2018-05-02T08:04:48.452Z,37.48
2018-05-02T08:06:48.509Z,37.7
2018-05-02T08:07:48.538Z,37.12
2018-05-02T08:08:48.565Z,37.6
2018-05-02T08:09:48.603Z,37.21
2018-05-02T08:10:48.365Z,38.58
2018-05-02T08:11:48.493Z,39.43
2018-05-02T08:12:48.686Z,37.62
2018-05-02T08:14:03.371Z,37.62
2018-05-02T08:14:48.738Z,38.74
2018-05-02T08:15:48.766Z,39.51
2018-05-02T08:16:48.793Z,39.12
2018-05-02T08:17:48.822Z,38.83
2018-05-02T08:18:48.853Z,38.95
2018-05-02T08:19:48.879Z,38.45
2018-05-02T08:21:48.677Z,38.74
2018-05-02T08:22:48.707Z,40.09
2018-05-02T08:23:48.998Z,38.08
2018-05-02T08:24:49.021Z,37.91
2018-05-02T08:25:48.791Z,37.71
2018-05-02T08:26:48.819Z,38.29
2018-05-02T08:27:49.104Z,37.43
2018-05-02T08:28:49.135Z,37.89
2018-05-02T08:30:03.824Z,37.7
2018-05-02T08:30:49.191Z,38.28
2018-05-02T08:31:49.221Z,38.46
2018-05-02T08:32:49.421Z,37.79
2018-05-02T08:33:49.280Z,38.58
2018-05-02T08:34:49.046Z,37.06
2018-05-02T08:35:49.334Z,36.77
2018-05-02T08:36:49.363Z,36
2018-05-02T08:38:49.511Z,35.32
2018-05-02T08:40:49.487Z,34.74
2018-05-02T08:41:49.505Z,34.72
2018-05-02T08:42:49.539Z,36
2018-05-02T08:43:49.560Z,35.34
2018-05-02T08:44:49.331Z,34.38
2018-05-02T08:46:04.281Z,34.68
2018-05-02T08:46:49.648Z,35.05
2018-05-02T08:47:49.676Z,35.71
2018-05-02T08:48:49.706Z,35.61
2018-05-02T08:49:49.820Z,35.53
2018-05-02T08:50:49.762Z,35.8
2018-05-02T08:51:49.790Z,35.98
2018-05-02T08:52:49.561Z,36.73
2018-05-02T08:54:49.877Z,37.96
2018-05-02T08:55:49.914Z,38.62
2018-05-02T08:56:49.933Z,38.79
2018-05-02T08:57:49.975Z,39.18
2018-05-02T08:58:49.996Z,38.31
2018-05-02T08:59:50.018Z,38.7
2018-05-02T09:01:04.707Z,39.06
2018-05-02T09:01:50.246Z,39.91
2018-05-02T09:02:50.109Z,38.97
2018-05-02T09:03:50.284Z,38.87
2018-05-02T09:04:50.154Z,39.91
2018-05-02T09:05:49.922Z,39.53
2018-05-02T09:06:49.947Z,40.11
2018-05-02T09:08:50.028Z,40.76
2018-05-02T09:09:50.300Z,40.83
2018-05-02T09:10:50.312Z,41.12
2018-05-02T09:11:50.339Z,40.93
2018-05-02T09:12:50.365Z,40.93
2018-05-02T09:13:50.390Z,40.81
2018-05-02T09:14:50.416Z,40.02
2018-05-02T09:15:50.442Z,41.08
2018-05-02T09:16:50.211Z,41.94
2018-05-02T09:17:50.493Z,42.04
2018-05-02T09:18:50.517Z,43.17
2018-05-02T09:19:50.543Z,42.43
2018-05-02T09:20:50.569Z,42.52
2018-05-02T09:21:50.597Z,42.04
2018-05-02T09:22:50.359Z,41.93
2018-05-02T09:23:50.389Z,42.21
2018-05-02T09:24:50.668Z,42.98
2018-05-02T09:25:50.859Z,42.33
2018-05-02T09:27:50.796Z,41.94
2018-05-02T09:28:50.769Z,42.21
2018-05-02T09:29:50.794Z,42.98
2018-05-02T09:30:50.819Z,42.43
2018-05-02T09:31:50.842Z,42.13
2018-05-02T09:33:05.529Z,43.48
2018-05-02T09:33:50.893Z,43.19
2018-05-02T09:34:50.660Z,43.38
2018-05-02T09:36:50.970Z,43.1
2018-05-02T09:37:50.735Z,43
2018-05-02T09:38:51.017Z,43.46
2018-05-02T09:39:51.044Z,44.23
2018-05-02T09:40:50.808Z,45.28
2018-05-02T09:41:51.093Z,45.18
2018-05-02T09:42:50.856Z,44.8
2018-05-02T09:43:51.140Z,45.47
2018-05-02T09:44:51.180Z,45.64
2018-05-02T09:45:51.190Z,45.47
2018-05-02T09:46:51.213Z,45.74
2018-05-02T09:47:51.236Z,45.83
2018-05-02T09:49:05.923Z,46.39
2018-05-02T09:49:51.294Z,46.31
2018-05-02T09:50:51.311Z,46.79
2018-05-02T09:51:51.334Z,46.89
2018-05-02T09:52:51.361Z,46.31
2018-05-02T09:53:51.384Z,46.22
2018-05-02T09:55:51.435Z,46.62
2018-05-02T09:56:51.469Z,46.14
2018-05-02T09:57:51.223Z,46.24
2018-05-02T09:58:51.507Z,45.95
2018-05-02T09:59:51.540Z,45.95
2018-05-02T10:00:51.556Z,46.05
2018-05-02T10:01:51.580Z,46.05
2018-05-02T10:02:51.350Z,46.14
2018-05-02T10:03:51.627Z,47.01
2018-05-02T10:05:06.320Z,46.72
2018-05-02T10:05:51.677Z,46.43
2018-05-02T10:07:51.725Z,46.81
2018-05-02T10:08:51.749Z,47.3
2018-05-02T10:09:51.516Z,47.39
2018-05-02T10:10:51.541Z,47.1
2018-05-02T10:12:52.127Z,47.94
2018-05-02T10:14:51.897Z,48.04
2018-05-02T10:15:51.919Z,48.43
2018-05-02T10:16:51.944Z,48.61
2018-05-02T10:17:51.971Z,48.13
2018-05-02T10:18:51.992Z,48.8
2018-05-02T10:19:52.016Z,48.43
2018-05-02T10:21:06.702Z,48.69
2018-05-02T10:21:52.074Z,49.1
2018-05-02T10:22:52.112Z,48.61
2018-05-02T10:23:52.143Z,49
2018-05-02T10:24:52.140Z,49.48
2018-05-02T10:25:52.160Z,49.57
2018-05-02T10:26:51.928Z,49.38
2018-05-02T10:27:52.210Z,49
2018-05-02T10:28:52.236Z,49.1
2018-05-02T10:29:52.259Z,49.29
2018-05-02T10:30:52.287Z,49.57
2018-05-02T10:31:52.313Z,49.57
2018-05-02T10:32:52.329Z,50.53
2018-05-02T10:33:52.096Z,49.76
2018-05-02T10:34:52.119Z,50.05
2018-05-02T10:36:07.064Z,49.86
2018-05-02T10:36:52.522Z,49.98
2018-05-02T10:37:52.453Z,50.46
2018-05-02T10:38:52.475Z,50.65
2018-05-02T10:39:52.500Z,49.88
2018-05-02T10:40:52.524Z,49.12
2018-05-02T10:41:52.549Z,48.74
2018-05-02T10:42:52.570Z,49.02
2018-05-02T10:43:52.599Z,48.74
2018-05-02T10:44:52.620Z,49.96
2018-05-02T10:45:52.644Z,49.79
2018-05-02T10:46:52.410Z,49.98
2018-05-02T10:47:52.693Z,49.5
2018-05-02T10:48:52.717Z,49.6
2018-05-02T10:49:52.741Z,49.69
2018-05-02T10:50:52.766Z,49.79
2018-05-02T10:51:52.790Z,49.5
2018-05-02T10:53:52.843Z,49.41
2018-05-02T10:54:52.871Z,49.02
2018-05-02T10:55:52.651Z,48.54
2018-05-02T10:56:52.913Z,49.29
2018-05-02T10:58:52.699Z,49.41
2018-05-02T10:59:52.980Z,48.9
2018-05-02T11:00:53.006Z,49.67
2018-05-02T11:01:53.033Z,49.86
2018-05-02T11:02:53.052Z,49.76
2018-05-02T11:03:53.075Z,49.86
2018-05-02T11:04:53.103Z,49.21
2018-05-02T11:05:52.869Z,49.6
2018-05-02T11:06:53.149Z,49.5
2018-05-02T11:08:07.833Z,49.48
2018-05-02T11:08:53.197Z,49.57
2018-05-02T11:09:52.961Z,50.15
2018-05-02T11:10:53.250Z,50.63
2018-05-02T11:11:53.290Z,52.07
2018-05-02T11:12:53.035Z,51.51
2018-05-02T11:13:53.058Z,50.56
2018-05-02T11:14:53.340Z,50.27
2018-05-02T11:15:53.363Z,50.63
2018-05-02T11:16:53.396Z,50.24
2018-05-02T11:17:53.154Z,50.51
2018-05-02T11:18:53.437Z,51.2
2018-05-02T11:19:53.459Z,51.37
2018-05-02T11:20:53.482Z,51.87
2018-05-02T11:21:53.538Z,51.2
2018-05-02T11:22:53.537Z,51.1
2018-05-02T11:24:08.217Z,51.1
2018-05-02T11:24:53.322Z,51.49
2018-05-02T11:25:53.601Z,51.4
2018-05-02T11:26:53.369Z,51.46
2018-05-02T11:27:53.393Z,51.56
2018-05-02T11:28:53.424Z,52.14
2018-05-02T11:29:53.700Z,52.42
2018-05-02T11:30:53.465Z,51.78
2018-05-02T11:31:53.745Z,51.59
2018-05-02T11:32:53.777Z,51.49
2018-05-02T11:33:53.794Z,51.49
2018-05-02T11:34:53.818Z,51.78
2018-05-02T11:35:53.848Z,51.87
2018-05-02T11:36:53.865Z,51.97
2018-05-02T11:37:53.891Z,51.97
2018-05-02T11:38:53.915Z,52.26
2018-05-02T11:40:08.597Z,51.97
2018-05-02T11:40:53.960Z,51.68
2018-05-02T11:41:53.727Z,51.68
2018-05-02T11:42:54.010Z,52.26
2018-05-02T11:43:54.031Z,51.68
2018-05-02T11:44:53.798Z,51.97
2018-05-02T11:45:54.081Z,51.97
2018-05-02T11:46:54.103Z,52.62
2018-05-02T11:47:54.128Z,51.85
2018-05-02T11:48:54.153Z,52.71
2018-05-02T11:49:54.209Z,52.81
2018-05-02T11:50:54.198Z,53.55
2018-05-02T11:51:53.964Z,54.41
2018-05-02T11:52:54.246Z,53.83
2018-05-02T11:53:54.269Z,54.41
2018-05-02T11:54:54.295Z,53.83
2018-05-02T11:56:08.976Z,53.83
2018-05-02T11:56:54.340Z,54.6
2018-05-02T11:57:54.473Z,54.5
2018-05-02T11:58:54.389Z,54.89
2018-05-02T11:59:54.410Z,54.72
2018-05-02T12:00:54.439Z,54.91
2018-05-02T12:01:54.463Z,54.7
2018-05-02T12:02:54.483Z,55.94
2018-05-02T12:03:54.507Z,55.75
2018-05-02T12:04:54.530Z,56.42
2018-05-02T12:05:54.563Z,57.86
2018-05-02T12:06:54.576Z,57.76
2018-05-02T12:07:54.599Z,57.38
2018-05-02T12:08:54.620Z,57.38
2018-05-02T12:09:54.389Z,58.44
2018-05-02T12:11:09.331Z,58.5
2018-05-02T12:11:54.701Z,58.79
2018-05-02T12:12:54.718Z,59.17
2018-05-02T12:14:54.767Z,60.13
2018-05-02T12:15:54.797Z,61.34
2018-05-02T12:16:54.910Z,61.57
2018-05-02T12:17:54.575Z,63.1
2018-05-02T12:20:54.905Z,65.2
2018-05-02T12:21:54.730Z,64.72
2018-05-02T12:22:54.950Z,64.43
2018-05-02T12:23:54.975Z,64.5
2018-05-02T12:24:54.740Z,65.65
2018-05-02T12:25:55.020Z,65.74
2018-05-02T12:26:55.045Z,65.65
2018-05-02T12:27:54.945Z,64.5
2018-05-02T12:28:55.091Z,65.26
2018-05-02T12:29:55.113Z,66.41
2018-05-02T12:30:54.879Z,66.51
2018-05-02T12:31:55.159Z,66.32
2018-05-02T12:32:54.923Z,66.22
2018-05-02T12:33:55.205Z,66.61
2018-05-02T12:34:55.227Z,65.65
2018-05-02T12:35:55.256Z,65.55
2018-05-02T12:36:55.276Z,65.94
2018-05-02T12:37:55.301Z,65.3
2018-05-02T12:38:55.323Z,64.53
2018-05-02T12:39:55.344Z,64.5
2018-05-02T12:40:55.567Z,64.82
2018-05-02T12:41:55.391Z,64.43
2018-05-02T12:43:10.075Z,63.48
2018-05-02T12:43:55.438Z,63.19
2018-05-02T12:44:55.460Z,63.1
2018-05-02T12:45:55.493Z,63.1
2018-05-02T12:46:55.507Z,63.29
2018-05-02T12:47:55.532Z,63.19
2018-05-02T12:48:55.555Z,62.62
2018-05-02T12:49:55.584Z,61.85
2018-05-02T12:50:55.605Z,62.43
2018-05-02T12:51:55.624Z,62.23
2018-05-02T12:52:55.653Z,63.19
2018-05-02T12:53:55.669Z,61.79
2018-05-02T12:54:55.434Z,62.07
2018-05-02T12:55:55.915Z,60.93
2018-05-02T12:56:55.741Z,60.93
2018-05-02T12:57:55.506Z,60.83
2018-05-02T12:59:10.450Z,61.5
2018-05-02T12:59:55.809Z,61.11
2018-05-02T13:00:55.833Z,60.54
2018-05-02T13:01:55.857Z,60.54
2018-05-02T13:03:55.906Z,59.87
2018-05-02T13:04:55.925Z,59.77
2018-05-02T13:05:55.688Z,59.2
2018-05-02T13:06:55.978Z,59.3
2018-05-02T13:07:55.996Z,58.84
2018-05-02T13:08:56.020Z,58.37
2018-05-02T13:09:56.042Z,58.08
2018-05-02T13:10:56.067Z,57.53
2018-05-02T13:11:56.090Z,57.24
2018-05-02T13:12:56.116Z,56.29
2018-05-02T13:13:56.135Z,56
2018-05-02T13:15:10.820Z,55.64
2018-05-02T13:15:56.183Z,55.16
2018-05-02T13:16:56.213Z,55.16
2018-05-02T13:17:56.234Z,54.97
2018-05-02T13:18:56.260Z,54.71
2018-05-02T13:19:56.280Z,54.04
2018-05-02T13:20:56.042Z,52.89
2018-05-02T13:21:56.329Z,52.22
2018-05-02T13:22:56.350Z,52.69
2018-05-02T13:23:56.375Z,52.6
2018-05-02T13:24:56.399Z,52.79
2018-05-02T13:25:56.423Z,52.31
2018-05-02T13:26:56.445Z,52.24
2018-05-02T13:27:56.469Z,52.14
2018-05-02T13:28:56.493Z,52.05
2018-05-02T13:29:56.517Z,50.9
2018-05-02T13:31:11.201Z,50.32
2018-05-02T13:31:56.563Z,50.49
2018-05-02T13:32:56.588Z,50.61
2018-05-02T13:33:56.611Z,50.39
2018-05-02T13:34:56.640Z,50.2
2018-05-02T13:35:56.402Z,50.29
2018-05-02T13:36:56.684Z,49.91
2018-05-02T13:37:56.452Z,49.91
2018-05-02T13:39:56.756Z,49.91
2018-05-02T13:40:56.781Z,49.91
2018-05-02T13:41:56.805Z,51.06
2018-05-02T13:42:56.830Z,50.68
2018-05-02T13:44:56.619Z,50.03
2018-05-02T13:46:11.564Z,50.13